Portada
METAR-TAF:

METAR-TAF

Aeroports :

Porto Alegre, Rio Grande do Sul, Brasil

latitud: 30-00S, longitud: 051-11W, altitud: 3 m

Observació

L'informe es va fer fa 6 minuts, a les 05:00 UTC
Vent 5 kt del Sud/Sud-Oest, variant entre Sud/Sud-Est i Oest/Sud-Oest
Temperatura 21°C
Humitat 88%
Pressió 1010 hPa
Visibilitat 10 km o més
Cel ennuvolat a una alçada de 1500 ft
Cel ennuvolat a una alçada de 3500 ft

METAR: SBPA 150500Z 20005KT 160V240 9999 BKN015 BKN035 21/19 Q1010

Hora: 03:06 (05:06 UTC)

Pronòstic

L'informe es va fer fa 7 hores i 6 minuts, a les 22:00 UTC
Pronòstic vàlid del 15 a les 00 UTC al 15 a les 24 UTC
Vent 7 kt del Sud
Visibilitat 10 km o més
Núvols disperses a una alçada de 3500 ft
Probabilitat 40% :
Temporalment
l' 15 a les 06 UTC al 15 a les 10 UTC
Cel ennuvolat a una alçada de 900 ft

TAF: SBPA 142200Z 1500/1524 19007KT 9999 SCT035 TN18/1508Z TX24/1518Z PROB40 TEMPO 1506/1510 BKN009 RMK PER

Observacions i pronòstics meteorològics de més de 4000 aeroports (METAR i TAF).

Les estacions disponibles són els punts grocs i vermells al mapa.

Posi el ratolí al punt desitjat per veure el nom de l'estació.

Feu clic per veure les observacions i els pronòstics meteorològics.

Per canviar el mapa: feu clic els botons verds amb una creu de color negre per apropar; al botó verd amb un guió per allunyar la imatge; o en les fletxes verdes per a mapes adjacents.


METAR-TAF: